Time;durP1;ratioP1;P1;durP2;ratioP2;P2;SDS_P1;SDS_P2;PMS_P1;PMS_P2;Temp;Humidity;BMP_temperature;BMP_pressure;BME280_temperature;BME280_humidity;BME280_pressure;Samples;Min_cycle;Max_cycle;Signal;HPM_P1;HPM_P2
2021/05/27 00:00:01;;;;;;;3.13;2.92;;;;;;;;;;5055421;28;20213;-80
2021/05/27 00:02:27;;;;;;;2.80;2.60;;;;;;;;;;5055737;28;20228;-80
2021/05/27 00:04:54;;;;;;;4.43;3.10;;;;;;;;;;5055355;28;20229;-81
2021/05/27 00:07:21;;;;;;;3.05;2.78;;;;;;;;;;5055534;28;20206;-80
2021/05/27 00:09:49;;;;;;;3.60;2.95;;;;;;;;;;5055395;28;20202;-80
2021/05/27 00:12:16;;;;;;;3.80;3.50;;;;;;;;;;5055561;28;20197;-81
2021/05/27 00:14:42;;;;;;;3.60;2.67;;;;;;;;;;5055209;28;20216;-80
2021/05/27 00:17:09;;;;;;;3.20;2.85;;;;;;;;;;5055401;28;20198;-80
2021/05/27 00:19:36;;;;;;;3.45;3.15;;;;;;;;;;5054981;28;20218;-80
2021/05/27 00:22:04;;;;;;;2.20;2.03;;;;;;;;;;5055125;28;20710;-80
2021/05/27 00:24:31;;;;;;;2.80;2.47;;;;;;;;;;5055188;28;20205;-80
2021/05/27 00:26:58;;;;;;;3.67;2.65;;;;;;;;;;5055812;28;20547;-80
2021/05/27 00:29:25;;;;;;;2.63;2.30;;;;;;;;;;5054640;28;20235;-80
2021/05/27 00:31:52;;;;;;;2.38;2.17;;;;;;;;;;5054699;28;20201;-80
2021/05/27 00:34:19;;;;;;;2.65;2.45;;;;;;;;;;5055046;28;20205;-81
2021/05/27 00:36:46;;;;;;;2.72;2.53;;;;;;;;;;5055074;28;20225;-80
2021/05/27 00:39:13;;;;;;;2.40;2.30;;;;;;;;;;5054985;28;20208;-81
2021/05/27 00:41:40;;;;;;;2.58;2.38;;;;;;;;;;5054092;28;20226;-80
2021/05/27 00:44:21;;;;;;;2.58;2.38;;;;;;;;;;5054503;28;20202;-80
2021/05/27 00:46:48;;;;;;;2.80;2.60;;;;;;;;;;5054809;28;20229;-80
2021/05/27 00:49:15;;;;;;;2.65;2.45;;;;;;;;;;5054572;28;20672;-80
2021/05/27 00:51:42;;;;;;;2.53;2.35;;;;;;;;;;5054289;28;20251;-80
2021/05/27 00:54:09;;;;;;;2.90;2.50;;;;;;;;;;5053709;28;20206;-80
2021/05/27 00:56:37;;;;;;;2.22;2.13;;;;;;;;;;5054084;28;20228;-80
2021/05/27 00:59:04;;;;;;;3.05;2.72;;;;;;;;;;5054216;28;20684;-80
2021/05/27 01:01:32;;;;;;;3.03;2.17;;;;;;;;;;5054355;28;20703;-80
2021/05/27 01:03:59;;;;;;;2.60;2.40;;;;;;;;;;5054232;28;20205;-80
2021/05/27 01:06:26;;;;;;;3.40;2.45;;;;;;;;;;5054233;28;20228;-80
2021/05/27 01:08:53;;;;;;;2.95;2.75;;;;;;;;;;5053781;28;20407;-80
2021/05/27 01:11:20;;;;;;;3.05;2.85;;;;;;;;;;5054044;28;20206;-80
2021/05/27 01:13:47;;;;;;;2.78;2.58;;;;;;;;;;5053919;28;20683;-81
2021/05/27 01:16:14;;;;;;;2.72;2.53;;;;;;;;;;5048433;28;20241;-81
2021/05/27 01:18:42;;;;;;;2.58;2.38;;;;;;;;;;5036254;28;20202;-81
2021/05/27 01:21:09;;;;;;;2.70;2.50;;;;;;;;;;5035982;28;20210;-81
2021/05/27 01:23:37;;;;;;;2.40;2.20;;;;;;;;;;5035856;28;20202;-81
2021/05/27 01:26:09;;;;;;;3.92;2.40;;;;;;;;;;5036734;28;20229;-81
2021/05/27 01:28:36;;;;;;;2.85;2.40;;;;;;;;;;5035880;28;20289;-81
2021/05/27 01:31:06;;;;;;;3.13;2.83;;;;;;;;;;5036016;28;20664;-81
2021/05/27 01:33:33;;;;;;;2.95;2.70;;;;;;;;;;5035659;28;20245;-81
2021/05/27 01:36:00;;;;;;;2.70;2.50;;;;;;;;;;5035352;28;20230;-81
2021/05/27 01:38:30;;;;;;;2.78;2.42;;;;;;;;;;5036716;28;20206;-81
2021/05/27 01:41:01;;;;;;;2.80;2.55;;;;;;;;;;5036241;28;20194;-81
2021/05/27 01:43:28;;;;;;;2.72;2.53;;;;;;;;;;5035630;28;20300;-81
2021/05/27 01:45:56;;;;;;;2.53;2.33;;;;;;;;;;5035822;28;20309;-81
2021/05/27 01:48:23;;;;;;;2.40;2.20;;;;;;;;;;5035943;28;20661;-81
2021/05/27 01:50:50;;;;;;;3.17;2.85;;;;;;;;;;5036051;28;20255;-81
2021/05/27 01:53:18;;;;;;;2.55;2.35;;;;;;;;;;5035839;28;20240;-80
2021/05/27 01:55:48;;;;;;;3.42;2.65;;;;;;;;;;5035432;28;20229;-81
2021/05/27 01:58:17;;;;;;;3.33;3.03;;;;;;;;;;5035116;28;20210;-81
2021/05/27 02:00:45;;;;;;;2.50;2.30;;;;;;;;;;5036247;28;20206;-81
2021/05/27 02:03:12;;;;;;;2.47;2.30;;;;;;;;;;5035354;28;20245;-81
2021/05/27 02:05:39;;;;;;;2.42;2.22;;;;;;;;;;5034590;28;20230;-81
2021/05/27 02:08:06;;;;;;;2.03;1.92;;;;;;;;;;5035603;28;20198;-81
2021/05/27 02:10:33;;;;;;;1.75;1.65;;;;;;;;;;5035197;28;20699;-81
2021/05/27 02:13:00;;;;;;;2.70;2.50;;;;;;;;;;5035392;28;20207;-81
2021/05/27 02:15:28;;;;;;;2.35;2.25;;;;;;;;;;5034805;28;20280;-82
2021/05/27 02:17:54;;;;;;;2.10;1.90;;;;;;;;;;5035658;28;20210;-82
2021/05/27 02:20:21;;;;;;;3.08;2.85;;;;;;;;;;5035587;28;20194;-81
2021/05/27 02:22:48;;;;;;;2.20;2.10;;;;;;;;;;5035419;28;20222;-82
2021/05/27 02:25:16;;;;;;;1.98;1.83;;;;;;;;;;5034713;28;20222;-81
2021/05/27 02:27:42;;;;;;;2.58;2.38;;;;;;;;;;5034511;28;20264;-81
2021/05/27 02:30:12;;;;;;;1.77;1.67;;;;;;;;;;5034875;28;20256;-82
2021/05/27 02:32:39;;;;;;;1.85;1.75;;;;;;;;;;5035181;28;20213;-81
2021/05/27 02:35:07;;;;;;;2.00;1.90;;;;;;;;;;5035128;28;20249;-82
2021/05/27 02:37:34;;;;;;;2.03;1.83;;;;;;;;;;5035395;28;20210;-81
2021/05/27 02:40:01;;;;;;;2.45;2.30;;;;;;;;;;5035008;28;20205;-82
2021/05/27 02:42:28;;;;;;;2.97;2.78;;;;;;;;;;5034426;28;20606;-82
2021/05/27 02:44:55;;;;;;;3.30;2.00;;;;;;;;;;5035271;28;20773;-82
2021/05/27 02:47:22;;;;;;;2.45;2.25;;;;;;;;;;5035389;28;20297;-82
2021/05/27 02:49:50;;;;;;;2.10;2.00;;;;;;;;;;5034840;28;20700;-81
2021/05/27 02:52:17;;;;;;;1.95;1.85;;;;;;;;;;5035170;28;20205;-81
2021/05/27 02:54:43;;;;;;;2.30;2.20;;;;;;;;;;5035462;28;20229;-81
2021/05/27 02:57:10;;;;;;;1.95;1.85;;;;;;;;;;5033754;28;20195;-81
2021/05/27 02:59:37;;;;;;;2.38;2.17;;;;;;;;;;5033710;28;20628;-82
2021/05/27 03:02:04;;;;;;;2.00;1.90;;;;;;;;;;5034775;28;20225;-81
2021/05/27 03:04:31;;;;;;;2.03;1.85;;;;;;;;;;5034769;28;20201;-81
2021/05/27 03:06:59;;;;;;;2.20;2.10;;;;;;;;;;5034922;28;20709;-81
2021/05/27 03:09:25;;;;;;;2.65;2.40;;;;;;;;;;5034908;28;20500;-81
2021/05/27 03:11:53;;;;;;;2.75;2.10;;;;;;;;;;5034345;28;20222;-82
2021/05/27 03:14:21;;;;;;;2.17;2.08;;;;;;;;;;5035361;28;20210;-82
2021/05/27 03:16:48;;;;;;;2.72;2.53;;;;;;;;;;5035306;28;20238;-81
2021/05/27 03:19:14;;;;;;;2.88;2.67;;;;;;;;;;5039487;28;20213;-82
2021/05/27 03:21:41;;;;;;;2.22;2.05;;;;;;;;;;5038359;28;20202;-81
2021/05/27 03:24:09;;;;;;;1.85;1.75;;;;;;;;;;5038484;28;20273;-80
2021/05/27 03:26:36;;;;;;;2.20;2.10;;;;;;;;;;5038868;28;20262;-80
2021/05/27 03:29:04;;;;;;;2.00;1.90;;;;;;;;;;5039583;28;20550;-81
2021/05/27 03:31:31;;;;;;;2.95;2.33;;;;;;;;;;5054485;28;20202;-81
2021/05/27 03:33:57;;;;;;;2.30;2.10;;;;;;;;;;5059085;28;20217;-82
2021/05/27 03:36:24;;;;;;;2.28;2.08;;;;;;;;;;5059399;28;20222;-82
2021/05/27 03:38:51;;;;;;;2.25;2.15;;;;;;;;;;5058583;28;20580;-82
2021/05/27 03:41:19;;;;;;;2.38;2.20;;;;;;;;;;5058577;28;20205;-81
2021/05/27 03:43:45;;;;;;;1.85;1.73;;;;;;;;;;5058342;28;20233;-81
2021/05/27 03:46:12;;;;;;;2.25;2.05;;;;;;;;;;5059069;28;20296;-82
2021/05/27 03:48:39;;;;;;;2.92;2.72;;;;;;;;;;5058167;28;20197;-81
2021/05/27 03:51:06;;;;;;;2.30;2.20;;;;;;;;;;5058786;28;20201;-81
2021/05/27 03:53:33;;;;;;;2.55;2.40;;;;;;;;;;5058057;28;20201;-81
2021/05/27 03:56:00;;;;;;;2.70;2.50;;;;;;;;;;5058492;28;20217;-81
2021/05/27 04:01:13;;;;;;;2.50;2.30;;;;;;;;;;5058588;28;20263;-81
2021/05/27 04:09:15;;;;;;;2.40;2.30;;;;;;;;;;5058579;28;20192;-81
2021/05/27 04:11:42;;;;;;;2.78;2.58;;;;;;;;;;5058391;28;20205;-81
2021/05/27 04:14:10;;;;;;;2.40;2.20;;;;;;;;;;5058441;28;20198;-81
2021/05/27 04:16:37;;;;;;;2.80;2.60;;;;;;;;;;5057540;28;20707;-81
2021/05/27 04:19:04;;;;;;;2.47;2.28;;;;;;;;;;5058384;28;20205;-81
2021/05/27 04:21:31;;;;;;;2.22;2.13;;;;;;;;;;5058382;28;20205;-81
2021/05/27 04:23:58;;;;;;;2.80;2.60;;;;;;;;;;5058439;28;20225;-81
2021/05/27 04:26:25;;;;;;;2.60;2.40;;;;;;;;;;5058003;28;20226;-81
2021/05/27 04:28:52;;;;;;;2.90;2.70;;;;;;;;;;5056354;28;20202;-81
2021/05/27 04:31:20;;;;;;;3.03;2.50;;;;;;;;;;5057399;28;20228;-81
2021/05/27 04:33:54;;;;;;;3.00;2.50;;;;;;;;;;5057729;28;20266;-81
2021/05/27 04:36:22;;;;;;;2.38;2.17;;;;;;;;;;5057345;28;20649;-81
2021/05/27 04:38:50;;;;;;;2.78;2.58;;;;;;;;;;5059945;28;20563;-81
2021/05/27 04:41:18;;;;;;;2.88;2.67;;;;;;;;;;5057915;28;20197;-81
2021/05/27 04:43:47;;;;;;;3.65;2.70;;;;;;;;;;5057541;28;20236;-82
2021/05/27 04:46:14;;;;;;;3.17;2.97;;;;;;;;;;5057652;28;20738;-81
2021/05/27 04:48:42;;;;;;;3.85;2.72;;;;;;;;;;5057287;28;20209;-81
2021/05/27 04:51:09;;;;;;;3.70;3.05;;;;;;;;;;5057332;28;20206;-81
2021/05/27 04:53:36;;;;;;;3.45;2.85;;;;;;;;;;5057445;28;20580;-81
2021/05/27 04:56:05;;;;;;;3.17;2.60;;;;;;;;;;5057184;28;20225;-81
2021/05/27 04:58:32;;;;;;;2.47;2.28;;;;;;;;;;5057650;28;20731;-81
2021/05/27 05:01:00;;;;;;;3.63;2.50;;;;;;;;;;5056840;28;20201;-81
2021/05/27 05:03:27;;;;;;;3.65;2.42;;;;;;;;;;5056989;28;20324;-81
2021/05/27 05:05:55;;;;;;;3.25;3.03;;;;;;;;;;5057298;28;20225;-82
2021/05/27 05:08:22;;;;;;;3.05;2.85;;;;;;;;;;5057031;28;20201;-82
2021/05/27 05:10:49;;;;;;;3.47;3.17;;;;;;;;;;5056908;28;20579;-82
2021/05/27 05:13:16;;;;;;;5.80;3.35;;;;;;;;;;5057494;28;20201;-82
2021/05/27 05:15:43;;;;;;;2.90;2.58;;;;;;;;;;5056780;28;20629;-82
2021/05/27 05:18:12;;;;;;;2.75;2.55;;;;;;;;;;5057410;28;20198;-82
2021/05/27 05:20:41;;;;;;;3.03;2.60;;;;;;;;;;5057361;28;20206;-82
2021/05/27 05:23:09;;;;;;;2.47;2.28;;;;;;;;;;5056339;28;20229;-82
2021/05/27 05:25:39;;;;;;;2.92;2.72;;;;;;;;;;5057461;28;20224;-82
2021/05/27 05:28:06;;;;;;;2.22;1.85;;;;;;;;;;5057083;28;20201;-82
2021/05/27 05:30:34;;;;;;;2.95;2.00;;;;;;;;;;5057467;28;20208;-82
2021/05/27 05:33:01;;;;;;;2.78;2.58;;;;;;;;;;5057078;28;20206;-82
2021/05/27 05:35:28;;;;;;;2.70;2.50;;;;;;;;;;5056813;28;20229;-82
2021/05/27 05:37:56;;;;;;;2.92;2.42;;;;;;;;;;5057031;28;20205;-82
2021/05/27 05:40:26;;;;;;;2.42;2.20;;;;;;;;;;5056937;28;20209;-82
2021/05/27 05:42:53;;;;;;;2.65;2.38;;;;;;;;;;5057072;28;20237;-82
2021/05/27 05:45:21;;;;;;;2.67;2.47;;;;;;;;;;5049851;28;20221;-83
2021/05/27 05:47:49;;;;;;;3.90;2.33;;;;;;;;;;5036479;28;20672;-82
2021/05/27 05:50:44;;;;;;;1.63;1.52;;;;;;;;;;5036872;28;20201;-82
2021/05/27 05:53:06;;;;;;;3.20;1.70;;;;;;;;;;5036865;28;20277;-83
2021/05/27 05:55:33;;;;;;;1.73;1.60;;;;;;;;;;5037212;28;20241;-82
2021/05/27 05:58:02;;;;;;;1.50;1.40;;;;;;;;;;5036733;28;20199;-82
2021/05/27 06:00:29;;;;;;;2.47;1.83;;;;;;;;;;5036469;28;20209;-83
2021/05/27 06:02:55;;;;;;;1.85;1.52;;;;;;;;;;5036842;28;20199;-83
2021/05/27 06:05:22;;;;;;;1.60;1.38;;;;;;;;;;5036431;28;20229;-83
2021/05/27 06:07:49;;;;;;;1.92;1.50;;;;;;;;;;5036557;28;20202;-82
2021/05/27 06:10:16;;;;;;;1.27;1.27;;;;;;;;;;5035068;28;20209;-83
2021/05/27 06:12:44;;;;;;;1.23;1.20;;;;;;;;;;5036510;28;20256;-83
2021/05/27 06:15:12;;;;;;;1.52;1.42;;;;;;;;;;5035059;28;20233;-83
2021/05/27 06:17:39;;;;;;;1.27;1.27;;;;;;;;;;5036805;28;20226;-83
2021/05/27 06:20:07;;;;;;;1.00;1.00;;;;;;;;;;5036636;28;20205;-83
2021/05/27 06:22:34;;;;;;;1.10;1.10;;;;;;;;;;5035795;28;20213;-83
2021/05/27 06:25:03;;;;;;;1.17;1.10;;;;;;;;;;5036160;28;20684;-84
2021/05/27 06:27:30;;;;;;;1.65;1.55;;;;;;;;;;5036691;28;20599;-83
2021/05/27 06:29:57;;;;;;;1.30;1.20;;;;;;;;;;5036394;28;20221;-83
2021/05/27 06:32:24;;;;;;;1.45;1.35;;;;;;;;;;5036462;28;20206;-83
2021/05/27 06:34:52;;;;;;;1.27;1.20;;;;;;;;;;5035515;28;20205;-83
2021/05/27 06:37:19;;;;;;;1.02;1.02;;;;;;;;;;5036269;28;20289;-83
2021/05/27 06:39:46;;;;;;;1.50;1.40;;;;;;;;;;5036882;28;20202;-83
2021/05/27 06:42:13;;;;;;;1.20;1.10;;;;;;;;;;5036347;28;20187;-83
2021/05/27 06:44:40;;;;;;;1.23;1.10;;;;;;;;;;5035764;28;20650;-83
2021/05/27 06:47:08;;;;;;;1.58;1.48;;;;;;;;;;5035655;28;20217;-83
2021/05/27 06:49:34;;;;;;;1.65;1.55;;;;;;;;;;5036894;28;20569;-83
2021/05/27 06:52:01;;;;;;;1.15;1.15;;;;;;;;;;5036471;28;20205;-83
2021/05/27 06:54:30;;;;;;;1.92;1.30;;;;;;;;;;5039623;28;20198;-83
2021/05/27 06:56:57;;;;;;;1.30;1.20;;;;;;;;;;5039937;28;20628;-83
2021/05/27 06:59:24;;;;;;;1.50;1.40;;;;;;;;;;5040261;28;20206;-84
2021/05/27 07:01:51;;;;;;;1.10;1.10;;;;;;;;;;5040248;28;20195;-83
2021/05/27 07:04:19;;;;;;;1.20;1.10;;;;;;;;;;5039420;28;20368;-84
2021/05/27 07:06:45;;;;;;;1.10;1.10;;;;;;;;;;5039571;28;20214;-83
2021/05/27 07:09:13;;;;;;;1.08;1.08;;;;;;;;;;5039498;28;20602;-83
2021/05/27 07:11:40;;;;;;;0.90;0.90;;;;;;;;;;5039568;28;20700;-83
2021/05/27 07:14:07;;;;;;;1.10;1.00;;;;;;;;;;5039369;28;20204;-83
2021/05/27 07:16:35;;;;;;;1.00;0.98;;;;;;;;;;5039641;28;20230;-83
2021/05/27 07:19:02;;;;;;;1.10;1.08;;;;;;;;;;5039848;28;20222;-83
2021/05/27 07:21:29;;;;;;;0.90;0.90;;;;;;;;;;5039027;28;20225;-82
2021/05/27 07:23:56;;;;;;;0.82;0.82;;;;;;;;;;5038348;28;20233;-82
2021/05/27 07:26:23;;;;;;;0.90;0.90;;;;;;;;;;5038883;28;20226;-82
2021/05/27 07:28:50;;;;;;;0.80;0.80;;;;;;;;;;5038850;28;20206;-82
2021/05/27 07:31:17;;;;;;;1.25;1.15;;;;;;;;;;5038549;28;20683;-82
2021/05/27 07:33:44;;;;;;;0.98;0.95;;;;;;;;;;5039153;28;20209;-82
2021/05/27 07:36:11;;;;;;;0.90;0.90;;;;;;;;;;5038169;28;20218;-82
2021/05/27 07:38:38;;;;;;;0.80;0.80;;;;;;;;;;5038697;28;20687;-82
2021/05/27 07:41:06;;;;;;;0.90;0.90;;;;;;;;;;5038954;28;20229;-82
2021/05/27 07:43:33;;;;;;;1.13;1.00;;;;;;;;;;5038382;28;20206;-82
2021/05/27 07:46:00;;;;;;;1.60;1.50;;;;;;;;;;5038474;28;20219;-82
2021/05/27 07:48:27;;;;;;;0.73;0.73;;;;;;;;;;5037992;28;20205;-82
2021/05/27 07:50:54;;;;;;;0.82;0.80;;;;;;;;;;5037572;28;20202;-82
2021/05/27 07:53:21;;;;;;;1.00;1.00;;;;;;;;;;5038226;28;20199;-82
2021/05/27 07:55:49;;;;;;;3.28;0.93;;;;;;;;;;5037609;28;20761;-82
2021/05/27 07:58:16;;;;;;;0.90;0.90;;;;;;;;;;5038412;28;20212;-82
2021/05/27 08:00:43;;;;;;;1.13;0.98;;;;;;;;;;5038498;28;20545;-83
2021/05/27 08:03:10;;;;;;;0.80;0.80;;;;;;;;;;5037648;28;20202;-82
2021/05/27 08:05:37;;;;;;;0.82;0.82;;;;;;;;;;5037832;28;20229;-83
2021/05/27 08:08:04;;;;;;;1.65;0.85;;;;;;;;;;5038161;28;20198;-82
2021/05/27 08:10:31;;;;;;;1.00;1.00;;;;;;;;;;5038305;28;20202;-82
2021/05/27 08:12:59;;;;;;;1.20;1.20;;;;;;;;;;5038623;28;20576;-83
2021/05/27 08:15:26;;;;;;;1.25;0.77;;;;;;;;;;5038545;28;20241;-83
2021/05/27 08:17:53;;;;;;;0.90;0.90;;;;;;;;;;5039069;28;20194;-83
2021/05/27 08:20:20;;;;;;;0.95;0.95;;;;;;;;;;5039005;28;20187;-83
2021/05/27 08:22:46;;;;;;;1.70;0.85;;;;;;;;;;5038631;28;20195;-83
2021/05/27 08:25:13;;;;;;;0.80;0.80;;;;;;;;;;5038398;28;20238;-83
2021/05/27 08:27:40;;;;;;;0.75;0.75;;;;;;;;;;5038603;28;20209;-83
2021/05/27 08:30:09;;;;;;;0.88;0.88;;;;;;;;;;5039060;28;20206;-82
2021/05/27 08:32:36;;;;;;;0.70;0.70;;;;;;;;;;5038794;28;20210;-83
2021/05/27 08:35:03;;;;;;;0.85;0.85;;;;;;;;;;5037364;28;20218;-84
2021/05/27 08:37:30;;;;;;;1.25;0.93;;;;;;;;;;5039199;28;20198;-83
2021/05/27 08:39:57;;;;;;;1.05;1.05;;;;;;;;;;5038762;28;20311;-83
2021/05/27 08:42:24;;;;;;;3.00;0.80;;;;;;;;;;5039032;28;20202;-83
2021/05/27 08:44:51;;;;;;;0.98;0.98;;;;;;;;;;5038438;28;20222;-84
2021/05/27 08:47:19;;;;;;;1.02;1.02;;;;;;;;;;5038314;28;20209;-83
2021/05/27 08:49:48;;;;;;;1.13;1.13;;;;;;;;;;5038545;28;20221;-83
2021/05/27 08:52:15;;;;;;;0.93;0.93;;;;;;;;;;5038117;28;20203;-83
2021/05/27 08:54:42;;;;;;;1.33;1.23;;;;;;;;;;5036970;28;20198;-83
2021/05/27 08:57:09;;;;;;;1.05;1.05;;;;;;;;;;5038160;28;20183;-82
2021/05/27 08:59:36;;;;;;;0.80;0.80;;;;;;;;;;5037837;28;20552;-83
2021/05/27 09:02:06;;;;;;;1.10;1.10;;;;;;;;;;5038328;28;20616;-83
2021/05/27 09:04:34;;;;;;;0.90;0.90;;;;;;;;;;5038469;28;20229;-83
2021/05/27 09:07:02;;;;;;;0.80;0.80;;;;;;;;;;5038667;28;20296;-83
2021/05/27 09:09:54;;;;;;;1.75;1.67;;;;;;;;;;5038764;28;20213;-83
2021/05/27 09:12:30;;;;;;;1.10;1.00;;;;;;;;;;5038535;28;20325;-84
2021/05/27 09:14:57;;;;;;;1.52;1.20;;;;;;;;;;5037453;28;20229;-84
2021/05/27 09:17:24;;;;;;;1.08;1.08;;;;;;;;;;5037629;28;20734;-83
2021/05/27 09:20:21;;;;;;;1.85;1.30;;;;;;;;;;5037017;28;20233;-83
2021/05/27 09:23:05;;;;;;;1.15;1.05;;;;;;;;;;5037106;28;20202;-84
2021/05/27 09:25:32;;;;;;;1.65;1.08;;;;;;;;;;5037319;28;20222;-84
2021/05/27 09:28:00;;;;;;;2.13;0.88;;;;;;;;;;5036512;28;20206;-84
2021/05/27 09:30:27;;;;;;;1.00;1.00;;;;;;;;;;5036285;28;20205;-82
2021/05/27 09:32:53;;;;;;;1.20;1.15;;;;;;;;;;5051669;28;20664;-83
2021/05/27 09:35:22;;;;;;;1.15;1.15;;;;;;;;;;5056146;28;20225;-82
2021/05/27 09:37:51;;;;;;;1.10;1.00;;;;;;;;;;5057219;28;20212;-83
2021/05/27 09:40:38;;;;;;;1.10;1.10;;;;;;;;;;5056914;28;20198;-83
2021/05/27 09:43:07;;;;;;;0.82;0.82;;;;;;;;;;5057343;28;20189;-81
2021/05/27 09:45:36;;;;;;;0.90;0.90;;;;;;;;;;5055791;28;20225;-82
2021/05/27 09:48:22;;;;;;;1.50;1.10;;;;;;;;;;5055992;28;20687;-82
2021/05/27 09:50:50;;;;;;;0.77;0.77;;;;;;;;;;5054380;28;20718;-81
2021/05/27 09:53:20;;;;;;;1.30;1.30;;;;;;;;;;5035554;28;20301;-82
2021/05/27 09:55:47;;;;;;;1.02;1.02;;;;;;;;;;5035803;28;20222;-81
2021/05/27 09:58:16;;;;;;;1.20;1.10;;;;;;;;;;5036379;28;20316;-81
2021/05/27 10:00:45;;;;;;;1.40;1.30;;;;;;;;;;5036334;28;20202;-81
2021/05/27 10:03:39;;;;;;;1.35;1.17;;;;;;;;;;5035989;28;20191;-82
2021/05/27 10:06:10;;;;;;;1.40;1.30;;;;;;;;;;5037108;28;20313;-81
2021/05/27 10:08:52;;;;;;;0.90;0.90;;;;;;;;;;5036185;28;20187;-81
2021/05/27 10:11:20;;;;;;;1.38;1.38;;;;;;;;;;5035971;28;20248;-81
2021/05/27 10:13:47;;;;;;;1.10;1.10;;;;;;;;;;5036163;28;20245;-83
2021/05/27 10:16:16;;;;;;;1.60;1.50;;;;;;;;;;5034908;28;20234;-82
2021/05/27 10:18:43;;;;;;;1.30;1.23;;;;;;;;;;5035217;28;20190;-83
2021/05/27 10:21:13;;;;;;;1.50;1.40;;;;;;;;;;5035673;28;20202;-82
2021/05/27 10:23:41;;;;;;;1.30;1.20;;;;;;;;;;5035684;28;20256;-80
2021/05/27 10:26:08;;;;;;;1.50;1.40;;;;;;;;;;5035672;28;20226;-81
2021/05/27 10:28:36;;;;;;;1.48;1.38;;;;;;;;;;5039330;28;20197;-81
2021/05/27 10:31:03;;;;;;;1.40;1.30;;;;;;;;;;5039636;28;20209;-81
2021/05/27 10:33:38;;;;;;;1.55;1.45;;;;;;;;;;5040124;28;20703;-80
2021/05/27 10:36:07;;;;;;;1.58;1.48;;;;;;;;;;5040057;28;20225;-81
2021/05/27 10:38:49;;;;;;;1.58;1.30;;;;;;;;;;5040260;28;20179;-82
2021/05/27 10:41:19;;;;;;;1.70;1.60;;;;;;;;;;5040090;28;20206;-82
2021/05/27 10:44:16;;;;;;;1.58;1.40;;;;;;;;;;5040012;28;20664;-81
2021/05/27 10:47:19;;;;;;;1.15;1.15;;;;;;;;;;4959546;28;20283;-81
2021/05/27 10:49:55;;;;;;;2.55;1.55;;;;;;;;;;5040111;28;20214;-82
2021/05/27 10:52:43;;;;;;;1.88;1.77;;;;;;;;;;5040344;28;20209;-82
2021/05/27 10:55:56;;;;;;;1.38;1.27;;;;;;;;;;5040178;28;20593;-82
2021/05/27 10:59:02;;;;;;;1.33;1.30;;;;;;;;;;5038232;28;20198;-82
2021/05/27 11:02:01;;;;;;;1.48;1.38;;;;;;;;;;5030835;28;20753;-82
2021/05/27 11:04:39;;;;;;;1.67;1.58;;;;;;;;;;5059996;28;20194;-82
2021/05/27 11:07:20;;;;;;;1.30;1.20;;;;;;;;;;5060265;28;20196;-83
2021/05/27 11:09:49;;;;;;;1.50;1.40;;;;;;;;;;5060204;28;20197;-83
2021/05/27 11:12:23;;;;;;;1.33;1.23;;;;;;;;;;5060287;28;20221;-84
2021/05/27 11:15:19;;;;;;;1.20;1.20;;;;;;;;;;5059063;28;20201;-84
2021/05/27 11:18:07;;;;;;;1.50;1.40;;;;;;;;;;5024336;28;20205;-82
2021/05/27 11:20:34;;;;;;;1.20;1.20;;;;;;;;;;5059725;28;20229;-82
2021/05/27 11:23:19;;;;;;;1.10;1.10;;;;;;;;;;5059121;28;20205;-83
2021/05/27 11:25:46;;;;;;;1.23;1.17;;;;;;;;;;5059289;28;20575;-82
2021/05/27 11:28:38;;;;;;;1.20;1.10;;;;;;;;;;5060183;28;20217;-82
2021/05/27 11:31:06;;;;;;;1.10;1.10;;;;;;;;;;5059506;28;20209;-83
2021/05/27 11:33:39;;;;;;;1.40;1.30;;;;;;;;;;5059819;28;20243;-81
2021/05/27 11:36:12;;;;;;;1.85;1.70;;;;;;;;;;5059416;28;20229;-82
2021/05/27 11:38:40;;;;;;;1.50;1.40;;;;;;;;;;5059235;28;20251;-81
2021/05/27 11:41:10;;;;;;;1.40;1.30;;;;;;;;;;5059116;28;20682;-82
2021/05/27 11:43:41;;;;;;;1.98;1.77;;;;;;;;;;5059771;28;20259;-83
2021/05/27 11:46:13;;;;;;;1.50;1.40;;;;;;;;;;5059394;28;20221;-82
2021/05/27 11:48:44;;;;;;;1.55;1.45;;;;;;;;;;5059109;28;20225;-80
2021/05/27 11:51:14;;;;;;;1.60;1.50;;;;;;;;;;5059571;28;20302;-82
2021/05/27 11:53:48;;;;;;;1.88;1.77;;;;;;;;;;5059256;28;20204;-82
2021/05/27 11:56:32;;;;;;;2.33;1.95;;;;;;;;;;5059345;28;20232;-82
2021/05/27 11:59:00;;;;;;;2.70;2.50;;;;;;;;;;5059077;28;20204;-82
2021/05/27 12:01:29;;;;;;;2.65;2.45;;;;;;;;;;5058628;28;20209;-83
2021/05/27 12:04:13;;;;;;;2.72;2.53;;;;;;;;;;5059084;28;20591;-82
2021/05/27 12:07:02;;;;;;;3.00;2.80;;;;;;;;;;5058860;28;20312;-84
2021/05/27 12:09:38;;;;;;;3.00;2.80;;;;;;;;;;5059190;28;20219;-83
2021/05/27 12:12:20;;;;;;;2.85;2.65;;;;;;;;;;5059236;28;20209;-82
2021/05/27 12:14:53;;;;;;;2.42;2.25;;;;;;;;;;5058967;28;20197;-82
2021/05/27 12:17:26;;;;;;;2.58;2.38;;;;;;;;;;5059278;28;20194;-81
2021/05/27 12:19:54;;;;;;;2.60;2.50;;;;;;;;;;5059275;28;20210;-83
2021/05/27 12:22:22;;;;;;;2.75;2.55;;;;;;;;;;5060068;28;20257;-81
2021/05/27 12:25:09;;;;;;;2.40;2.20;;;;;;;;;;5059331;28;20205;-81
2021/05/27 12:27:41;;;;;;;2.65;2.45;;;;;;;;;;5059690;28;20603;-82
2021/05/27 12:30:10;;;;;;;2.65;2.45;;;;;;;;;;5058597;28;20259;-81
2021/05/27 12:32:39;;;;;;;2.97;2.78;;;;;;;;;;5059468;28;20201;-82
2021/05/27 12:35:08;;;;;;;2.75;2.53;;;;;;;;;;5058872;28;20225;-82
2021/05/27 12:37:39;;;;;;;2.80;2.60;;;;;;;;;;5058947;28;20214;-83
2021/05/27 12:40:09;;;;;;;3.08;2.83;;;;;;;;;;5058487;28;20323;-82
2021/05/27 12:42:36;;;;;;;3.08;2.83;;;;;;;;;;5058803;28;20248;-82
2021/05/27 12:45:27;;;;;;;2.55;2.35;;;;;;;;;;5059182;28;20291;-82
2021/05/27 12:48:14;;;;;;;2.58;2.38;;;;;;;;;;5038836;28;20207;-83
2021/05/27 12:50:44;;;;;;;2.47;2.28;;;;;;;;;;5038332;28;20213;-83
2021/05/27 12:53:26;;;;;;;2.63;2.40;;;;;;;;;;5039535;28;20228;-82
2021/05/27 12:55:53;;;;;;;2.83;2.63;;;;;;;;;;5041325;28;20582;-82
2021/05/27 12:58:35;;;;;;;2.85;2.10;;;;;;;;;;5058772;28;20293;-83
2021/05/27 13:01:03;;;;;;;2.03;1.92;;;;;;;;;;5059313;28;20213;-82
2021/05/27 13:03:31;;;;;;;2.80;2.60;;;;;;;;;;5058745;28;20212;-82
2021/05/27 13:06:06;;;;;;;2.45;2.25;;;;;;;;;;5054621;28;20225;-83
2021/05/27 13:08:34;;;;;;;2.55;2.35;;;;;;;;;;5038811;28;20198;-83
2021/05/27 13:11:16;;;;;;;2.50;2.38;;;;;;;;;;5037665;28;20673;-83
2021/05/27 13:13:43;;;;;;;2.10;2.00;;;;;;;;;;5038598;28;20229;-81
2021/05/27 13:16:25;;;;;;;2.38;2.28;;;;;;;;;;5032176;28;20656;-82
2021/05/27 13:18:52;;;;;;;2.72;2.53;;;;;;;;;;5038071;28;20198;-82
2021/05/27 13:21:19;;;;;;;2.63;2.42;;;;;;;;;;5036966;28;20664;-82
2021/05/27 13:23:46;;;;;;;2.58;2.38;;;;;;;;;;5037136;28;20203;-82
2021/05/27 13:26:16;;;;;;;2.65;2.45;;;;;;;;;;5041693;28;20221;-82
2021/05/27 13:28:43;;;;;;;2.70;2.50;;;;;;;;;;5033627;28;20210;-83
2021/05/27 13:31:11;;;;;;;2.70;2.50;;;;;;;;;;5025274;28;20742;-83
2021/05/27 13:33:39;;;;;;;3.25;2.95;;;;;;;;;;5033670;28;20206;-82
2021/05/27 13:36:07;;;;;;;3.05;2.85;;;;;;;;;;5040923;28;20206;-83
2021/05/27 13:38:34;;;;;;;3.08;2.78;;;;;;;;;;5056895;28;20206;-83
2021/05/27 13:41:01;;;;;;;2.65;2.45;;;;;;;;;;5056437;28;20213;-83
2021/05/27 13:43:31;;;;;;;2.58;2.38;;;;;;;;;;5057152;28;20201;-82
2021/05/27 13:45:58;;;;;;;2.95;2.75;;;;;;;;;;5055883;28;20240;-83
2021/05/27 13:48:26;;;;;;;2.40;2.30;;;;;;;;;;5056032;28;20255;-83
2021/05/27 13:50:53;;;;;;;3.15;2.67;;;;;;;;;;5055990;28;20206;-82
2021/05/27 13:53:19;;;;;;;4.47;2.80;;;;;;;;;;5056277;28;20293;-83
2021/05/27 13:55:51;;;;;;;2.72;2.53;;;;;;;;;;5056440;28;20586;-84
2021/05/27 13:58:19;;;;;;;2.88;2.67;;;;;;;;;;5057023;28;20646;-83
2021/05/27 14:00:45;;;;;;;2.83;2.63;;;;;;;;;;5055981;28;20205;-83
2021/05/27 14:03:12;;;;;;;3.15;2.10;;;;;;;;;;5056687;28;20695;-81
2021/05/27 14:05:40;;;;;;;2.28;2.17;;;;;;;;;;5056261;28;20225;-83
2021/05/27 14:08:08;;;;;;;3.17;2.92;;;;;;;;;;5055799;28;20210;-84
2021/05/27 14:10:35;;;;;;;3.00;2.80;;;;;;;;;;5056714;28;20201;-83
2021/05/27 14:13:02;;;;;;;2.88;2.60;;;;;;;;;;5056792;28;20205;-83
2021/05/27 14:15:31;;;;;;;3.15;2.85;;;;;;;;;;5056808;28;20252;-83
2021/05/27 14:17:58;;;;;;;3.05;2.80;;;;;;;;;;5056267;28;20209;-83
2021/05/27 14:20:25;;;;;;;3.55;3.25;;;;;;;;;;5056203;28;20548;-82
2021/05/27 14:22:52;;;;;;;3.38;3.08;;;;;;;;;;5057505;28;20186;-83
2021/05/27 14:25:21;;;;;;;3.55;2.95;;;;;;;;;;5056892;28;20217;-84
2021/05/27 14:27:48;;;;;;;3.53;3.22;;;;;;;;;;5056839;28;20221;-83
2021/05/27 14:30:16;;;;;;;3.38;3.08;;;;;;;;;;5056710;28;20698;-83
2021/05/27 14:32:43;;;;;;;3.72;3.42;;;;;;;;;;5056904;28;20630;-83
2021/05/27 14:35:12;;;;;;;3.17;2.90;;;;;;;;;;5056311;28;20226;-83
2021/05/27 14:37:38;;;;;;;3.75;3.45;;;;;;;;;;5057100;28;20201;-82
2021/05/27 14:40:08;;;;;;;2.97;2.78;;;;;;;;;;5056512;28;20206;-82
2021/05/27 14:42:36;;;;;;;3.47;3.22;;;;;;;;;;5056391;28;20201;-82
2021/05/27 14:45:04;;;;;;;3.50;2.88;;;;;;;;;;5056719;28;20221;-82
2021/05/27 14:47:31;;;;;;;3.58;3.28;;;;;;;;;;5055409;28;20218;-83
2021/05/27 14:50:00;;;;;;;3.35;3.05;;;;;;;;;;5056300;28;20209;-83
2021/05/27 14:52:26;;;;;;;3.30;3.00;;;;;;;;;;5056251;28;20213;-83
2021/05/27 14:54:53;;;;;;;3.22;2.92;;;;;;;;;;5054943;28;20210;-83
2021/05/27 14:57:21;;;;;;;3.42;2.92;;;;;;;;;;5056279;28;20200;-83
2021/05/27 14:59:48;;;;;;;2.85;2.60;;;;;;;;;;5055796;28;20208;-83
2021/05/27 15:02:15;;;;;;;3.30;3.03;;;;;;;;;;5055563;28;20202;-82
2021/05/27 15:04:42;;;;;;;2.63;2.40;;;;;;;;;;5055559;28;20209;-83